sensor_id;sensor_type;location;lat;lon;timestamp;pressure;altitude;pressure_sealevel;temperature;humidity
11888;BME280;6003;42.756;23.130;2022-10-23T00:02:09;155689.72;;;12.72;76.04
11888;BME280;6003;42.756;23.130;2022-10-23T00:04:36;155704.28;;;12.78;75.66
11888;BME280;6003;42.756;23.130;2022-10-23T00:07:03;155718.84;;;12.83;75.62
11888;BME280;6003;42.756;23.130;2022-10-23T00:09:30;155744.00;;;12.93;75.42
11888;BME280;6003;42.756;23.130;2022-10-23T00:11:57;155746.63;;;12.94;74.76
11888;BME280;6003;42.756;23.130;2022-10-23T00:14:25;155762.50;;;13.00;74.97
11888;BME280;6003;42.756;23.130;2022-10-23T00:16:52;155806.22;;;13.17;74.13
11888;BME280;6003;42.756;23.130;2022-10-23T00:19:19;155802.28;;;13.16;73.56
11888;BME280;6003;42.756;23.130;2022-10-23T00:21:45;155826.09;;;13.25;72.79
11888;BME280;6003;42.756;23.130;2022-10-23T00:24:12;155856.63;;;13.37;72.14
11888;BME280;6003;42.756;23.130;2022-10-23T00:26:39;155881.78;;;13.46;71.32
11888;BME280;6003;42.756;23.130;2022-10-23T00:29:07;155906.97;;;13.56;70.78
11888;BME280;6003;42.756;23.130;2022-10-23T00:31:36;155924.19;;;13.63;70.65
11888;BME280;6003;42.756;23.130;2022-10-23T00:34:03;155916.22;;;13.60;71.51
11888;BME280;6003;42.756;23.130;2022-10-23T00:36:32;155900.34;;;13.53;71.18
11888;BME280;6003;42.756;23.130;2022-10-23T00:38:59;155899.03;;;13.53;71.38
11888;BME280;6003;42.756;23.130;2022-10-23T00:41:28;155847.38;;;13.33;71.71
11888;BME280;6003;42.756;23.130;2022-10-23T00:44:07;155856.63;;;13.37;72.41
11888;BME280;6003;42.756;23.130;2022-10-23T00:46:37;155844.69;;;13.32;72.37
11888;BME280;6003;42.756;23.130;2022-10-23T00:49:05;155804.91;;;13.17;73.18
11888;BME280;6003;42.756;23.130;2022-10-23T00:51:36;155828.78;;;13.26;72.54
11888;BME280;6003;42.756;23.130;2022-10-23T00:54:04;155820.78;;;13.23;72.15
11888;BME280;6003;42.756;23.130;2022-10-23T00:56:35;155818.16;;;13.22;72.05
11888;BME280;6003;42.756;23.130;2022-10-23T00:59:04;155839.41;;;13.30;71.92
11888;BME280;6003;42.756;23.130;2022-10-23T01:01:31;155857.94;;;13.37;71.50
11888;BME280;6003;42.756;23.130;2022-10-23T01:03:59;155860.63;;;13.38;71.83
11888;BME280;6003;42.756;23.130;2022-10-23T01:06:32;155873.81;;;13.43;71.26
11888;BME280;6003;42.756;23.130;2022-10-23T01:09:08;155879.13;;;13.45;70.62
11888;BME280;6003;42.756;23.130;2022-10-23T01:11:42;155897.72;;;13.52;70.86
11888;BME280;6003;42.756;23.130;2022-10-23T01:14:17;155906.97;;;13.56;70.82
11888;BME280;6003;42.756;23.130;2022-10-23T01:16:52;155895.03;;;13.51;71.13
11888;BME280;6003;42.756;23.130;2022-10-23T01:19:41;155902.97;;;13.54;70.71
11888;BME280;6003;42.756;23.130;2022-10-23T01:22:26;155876.50;;;13.44;70.90
11888;BME280;6003;42.756;23.130;2022-10-23T01:24:57;155887.09;;;13.48;70.36
11888;BME280;6003;42.756;23.130;2022-10-23T01:27:31;155879.13;;;13.45;69.95
11888;BME280;6003;42.756;23.130;2022-10-23T01:30:05;155910.91;;;13.58;69.35
11888;BME280;6003;42.756;23.130;2022-10-23T01:32:39;155940.06;;;13.69;68.91
11888;BME280;6003;42.756;23.130;2022-10-23T01:35:11;155965.28;;;13.79;68.54
11888;BME280;6003;42.756;23.130;2022-10-23T01:37:41;156012.97;;;13.97;67.73
11888;BME280;6003;42.756;23.130;2022-10-23T01:40:12;156038.13;;;14.07;67.24
11888;BME280;6003;42.756;23.130;2022-10-23T01:42:48;156072.59;;;14.20;67.65
11888;BME280;6003;42.756;23.130;2022-10-23T01:45:19;156100.47;;;14.31;66.30
11888;BME280;6003;42.756;23.130;2022-10-23T01:47:50;156099.13;;;14.30;66.61
11888;BME280;6003;42.756;23.130;2022-10-23T01:50:19;156099.13;;;14.30;66.66
11888;BME280;6003;42.756;23.130;2022-10-23T01:52:47;156117.66;;;14.37;66.49
11888;BME280;6003;42.756;23.130;2022-10-23T01:55:15;156109.72;;;14.34;67.02
11888;BME280;6003;42.756;23.130;2022-10-23T01:57:45;156084.56;;;14.25;67.31
11888;BME280;6003;42.756;23.130;2022-10-23T02:00:16;156069.97;;;14.19;67.37
11888;BME280;6003;42.756;23.130;2022-10-23T02:02:45;156027.53;;;14.03;68.35
11888;BME280;6003;42.756;23.130;2022-10-23T02:05:16;156009.03;;;13.95;69.02
11888;BME280;6003;42.756;23.130;2022-10-23T02:07:45;155985.13;;;13.86;68.49
11888;BME280;6003;42.756;23.130;2022-10-23T02:10:13;155938.75;;;13.68;68.58
11888;BME280;6003;42.756;23.130;2022-10-23T02:12:48;155955.97;;;13.75;68.15
11888;BME280;6003;42.756;23.130;2022-10-23T02:15:21;155977.19;;;13.83;67.91
11888;BME280;6003;42.756;23.130;2022-10-23T02:18:01;155985.13;;;13.86;68.35
11888;BME280;6003;42.756;23.130;2022-10-23T02:20:36;155971.91;;;13.81;67.45
11888;BME280;6003;42.756;23.130;2022-10-23T02:23:14;156046.13;;;14.10;68.03
11888;BME280;6003;42.756;23.130;2022-10-23T02:25:48;156042.13;;;14.08;67.14
11888;BME280;6003;42.756;23.130;2022-10-23T02:28:22;156064.66;;;14.17;67.12
11888;BME280;6003;42.756;23.130;2022-10-23T02:30:51;156043.44;;;14.09;67.65
11888;BME280;6003;42.756;23.130;2022-10-23T02:33:19;156048.75;;;14.11;67.45
11888;BME280;6003;42.756;23.130;2022-10-23T02:35:47;156056.72;;;14.14;66.34
11888;BME280;6003;42.756;23.130;2022-10-23T02:38:33;156052.72;;;14.12;65.97
11888;BME280;6003;42.756;23.130;2022-10-23T02:41:08;156028.88;;;14.03;66.53
11888;BME280;6003;42.756;23.130;2022-10-23T02:43:48;155995.75;;;13.90;66.81
11888;BME280;6003;42.756;23.130;2022-10-23T02:46:21;155987.81;;;13.87;67.27
11888;BME280;6003;42.756;23.130;2022-10-23T02:48:56;155955.97;;;13.75;67.58
11888;BME280;6003;42.756;23.130;2022-10-23T02:51:31;155952.03;;;13.73;68.00
11888;BME280;6003;42.756;23.130;2022-10-23T02:54:05;155918.88;;;13.61;68.16
11888;BME280;6003;42.756;23.130;2022-10-23T02:56:41;155912.28;;;13.58;68.39
11888;BME280;6003;42.756;23.130;2022-10-23T02:59:15;155929.50;;;13.65;67.46
11888;BME280;6003;42.756;23.130;2022-10-23T03:01:48;155945.38;;;13.71;66.67
11888;BME280;6003;42.756;23.130;2022-10-23T03:04:18;155965.28;;;13.79;65.86
11888;BME280;6003;42.756;23.130;2022-10-23T03:06:48;155934.81;;;13.67;66.32
11888;BME280;6003;42.756;23.130;2022-10-23T03:09:16;155954.66;;;13.74;66.45
11888;BME280;6003;42.756;23.130;2022-10-23T03:11:43;155967.91;;;13.80;66.75
11888;BME280;6003;42.756;23.130;2022-10-23T03:14:12;155934.81;;;13.67;68.47
11888;BME280;6003;42.756;23.130;2022-10-23T03:16:39;155899.03;;;13.53;68.43
11888;BME280;6003;42.756;23.130;2022-10-23T03:19:06;155861.94;;;13.39;69.32
11888;BME280;6003;42.756;23.130;2022-10-23T03:21:33;155844.69;;;13.32;69.39
11888;BME280;6003;42.756;23.130;2022-10-23T03:24:00;155799.59;;;13.15;69.94
11888;BME280;6003;42.756;23.130;2022-10-23T03:26:27;155773.13;;;13.04;71.03
11888;BME280;6003;42.756;23.130;2022-10-23T03:28:54;155759.88;;;12.99;71.48
11888;BME280;6003;42.756;23.130;2022-10-23T03:31:22;155733.44;;;12.89;71.22
11888;BME280;6003;42.756;23.130;2022-10-23T03:33:49;155728.13;;;12.87;71.77
11888;BME280;6003;42.756;23.130;2022-10-23T03:36:16;155685.72;;;12.71;72.43
11888;BME280;6003;42.756;23.130;2022-10-23T03:38:43;155667.22;;;12.63;72.89
11888;BME280;6003;42.756;23.130;2022-10-23T03:41:10;155648.66;;;12.56;72.94
11888;BME280;6003;42.756;23.130;2022-10-23T03:43:37;155616.91;;;12.44;72.70
11888;BME280;6003;42.756;23.130;2022-10-23T03:46:04;155603.66;;;12.39;72.26
11888;BME280;6003;42.756;23.130;2022-10-23T03:48:35;155579.84;;;12.30;72.03
11888;BME280;6003;42.756;23.130;2022-10-23T03:51:04;155553.34;;;12.19;72.73
11888;BME280;6003;42.756;23.130;2022-10-23T03:53:31;155533.53;;;12.12;72.79
11888;BME280;6003;42.756;23.130;2022-10-23T03:55:57;155513.66;;;12.04;72.91
11888;BME280;6003;42.756;23.130;2022-10-23T03:58:24;155487.22;;;11.94;72.51
11888;BME280;6003;42.756;23.130;2022-10-23T04:00:51;155487.22;;;11.94;70.93
11888;BME280;6003;42.756;23.130;2022-10-23T04:03:18;155513.66;;;12.04;70.34
11888;BME280;6003;42.756;23.130;2022-10-23T04:05:46;155540.16;;;12.14;70.25
11888;BME280;6003;42.756;23.130;2022-10-23T04:08:14;155545.41;;;12.16;70.19
11888;BME280;6003;42.756;23.130;2022-10-23T04:10:41;155556.03;;;12.21;69.41
11888;BME280;6003;42.756;23.130;2022-10-23T04:13:08;155538.78;;;12.14;69.48
11888;BME280;6003;42.756;23.130;2022-10-23T04:15:35;155581.16;;;12.30;69.29
11888;BME280;6003;42.756;23.130;2022-10-23T04:18:02;155589.09;;;12.33;69.36
11888;BME280;6003;42.756;23.130;2022-10-23T04:20:29;155585.16;;;12.32;69.87
11888;BME280;6003;42.756;23.130;2022-10-23T04:22:57;155548.09;;;12.17;70.77
11888;BME280;6003;42.756;23.130;2022-10-23T04:25:24;155500.41;;;11.99;71.39
11888;BME280;6003;42.756;23.130;2022-10-23T04:27:51;155458.06;;;11.83;71.93
11888;BME280;6003;42.756;23.130;2022-10-23T04:30:18;155430.25;;;11.72;72.12
11888;BME280;6003;42.756;23.130;2022-10-23T04:32:45;155418.34;;;11.67;72.55
11888;BME280;6003;42.756;23.130;2022-10-23T04:35:12;155406.47;;;11.63;72.96
11888;BME280;6003;42.756;23.130;2022-10-23T04:37:39;155399.84;;;11.60;72.95
11888;BME280;6003;42.756;23.130;2022-10-23T04:40:08;155370.72;;;11.49;73.42
11888;BME280;6003;42.756;23.130;2022-10-23T04:42:35;155356.19;;;11.43;74.03
11888;BME280;6003;42.756;23.130;2022-10-23T04:45:03;155349.56;;;11.41;73.97
11888;BME280;6003;42.756;23.130;2022-10-23T04:47:30;155329.69;;;11.33;74.43
11888;BME280;6003;42.756;23.130;2022-10-23T04:50:22;155339.00;;;11.37;74.64
11888;BME280;6003;42.756;23.130;2022-10-23T04:52:53;155349.56;;;11.41;74.09
11888;BME280;6003;42.756;23.130;2022-10-23T04:55:21;155350.88;;;11.41;74.07
11888;BME280;6003;42.756;23.130;2022-10-23T04:57:49;155361.50;;;11.45;73.51
11888;BME280;6003;42.756;23.130;2022-10-23T05:00:17;155373.34;;;11.50;73.84
11888;BME280;6003;42.756;23.130;2022-10-23T05:02:44;155357.50;;;11.44;74.22
11888;BME280;6003;42.756;23.130;2022-10-23T05:05:11;155357.50;;;11.44;74.46
11888;BME280;6003;42.756;23.130;2022-10-23T05:07:38;155324.44;;;11.31;73.87
11888;BME280;6003;42.756;23.130;2022-10-23T05:10:06;155397.16;;;11.59;72.71
11888;BME280;6003;42.756;23.130;2022-10-23T05:12:34;155439.50;;;11.75;72.65
11888;BME280;6003;42.756;23.130;2022-10-23T05:15:01;155444.81;;;11.78;72.92
11888;BME280;6003;42.756;23.130;2022-10-23T05:17:31;155459.38;;;11.83;72.48
11888;BME280;6003;42.756;23.130;2022-10-23T05:20:02;155487.22;;;11.94;72.16
11888;BME280;6003;42.756;23.130;2022-10-23T05:22:34;155517.66;;;12.06;71.85
11888;BME280;6003;42.756;23.130;2022-10-23T05:25:03;155548.09;;;12.17;71.51
11888;BME280;6003;42.756;23.130;2022-10-23T05:27:30;155571.91;;;12.27;71.79
11888;BME280;6003;42.756;23.130;2022-10-23T05:29:59;155606.34;;;12.40;71.37
11888;BME280;6003;42.756;23.130;2022-10-23T05:32:28;155638.09;;;12.52;71.17
11888;BME280;6003;42.756;23.130;2022-10-23T05:34:57;155652.66;;;12.58;71.89
11888;BME280;6003;42.756;23.130;2022-10-23T05:37:25;155685.72;;;12.71;71.69
11888;BME280;6003;42.756;23.130;2022-10-23T05:39:52;155733.44;;;12.89;72.07
11888;BME280;6003;42.756;23.130;2022-10-23T05:42:19;155736.06;;;12.90;71.88
11888;BME280;6003;42.756;23.130;2022-10-23T05:44:46;155799.59;;;13.15;72.12
11888;BME280;6003;42.756;23.130;2022-10-23T05:47:14;155830.16;;;13.26;72.98
11888;BME280;6003;42.756;23.130;2022-10-23T05:49:41;155877.81;;;13.45;74.55
11888;BME280;6003;42.756;23.130;2022-10-23T05:52:09;155926.88;;;13.64;74.61
11888;BME280;6003;42.756;23.130;2022-10-23T05:54:36;155982.50;;;13.85;74.56
11888;BME280;6003;42.756;23.130;2022-10-23T05:57:03;156019.59;;;13.99;75.01
11888;BME280;6003;42.756;23.130;2022-10-23T05:59:30;156077.91;;;14.22;75.60
11888;BME280;6003;42.756;23.130;2022-10-23T06:01:57;156136.25;;;14.44;74.47
11888;BME280;6003;42.756;23.130;2022-10-23T06:04:25;156170.75;;;14.58;75.49
11888;BME280;6003;42.756;23.130;2022-10-23T06:06:52;156215.84;;;14.75;75.02
11888;BME280;6003;42.756;23.130;2022-10-23T06:09:19;156250.34;;;14.88;75.30
11888;BME280;6003;42.756;23.130;2022-10-23T06:11:46;156271.56;;;14.97;75.09
11888;BME280;6003;42.756;23.130;2022-10-23T06:14:13;156291.41;;;15.04;75.19
11888;BME280;6003;42.756;23.130;2022-10-23T06:16:40;156311.31;;;15.12;75.74
11888;BME280;6003;42.756;23.130;2022-10-23T06:19:08;156327.25;;;15.18;75.78
11888;BME280;6003;42.756;23.130;2022-10-23T06:21:37;156359.06;;;15.30;74.98
11888;BME280;6003;42.756;23.130;2022-10-23T06:24:05;156375.03;;;15.37;75.12
11888;BME280;6003;42.756;23.130;2022-10-23T06:26:32;156364.38;;;15.32;75.69
11888;BME280;6003;42.756;23.130;2022-10-23T06:28:59;156351.09;;;15.27;75.87
11888;BME280;6003;42.756;23.130;2022-10-23T06:31:26;156353.78;;;15.28;76.65
11888;BME280;6003;42.756;23.130;2022-10-23T06:33:53;156441.31;;;15.62;75.47
11888;BME280;6003;42.756;23.130;2022-10-23T06:36:20;156522.31;;;15.93;75.42
11888;BME280;6003;42.756;23.130;2022-10-23T06:39:02;156603.31;;;16.24;74.55
11888;BME280;6003;42.756;23.130;2022-10-23T06:41:29;156644.47;;;16.40;73.04
11888;BME280;6003;42.756;23.130;2022-10-23T06:43:56;156713.53;;;16.67;72.40
11888;BME280;6003;42.756;23.130;2022-10-23T06:46:23;156733.44;;;16.75;72.59
11888;BME280;6003;42.756;23.130;2022-10-23T06:48:51;156778.66;;;16.92;72.60
11888;BME280;6003;42.756;23.130;2022-10-23T06:51:18;156882.22;;;17.32;72.75
11888;BME280;6003;42.756;23.130;2022-10-23T06:53:46;156932.72;;;17.51;70.89
11888;BME280;6003;42.756;23.130;2022-10-23T06:56:15;157064.38;;;18.02;70.83
11888;BME280;6003;42.756;23.130;2022-10-23T06:58:42;157164.03;;;18.40;70.57
11888;BME280;6003;42.756;23.130;2022-10-23T07:01:11;157217.22;;;18.61;68.43
11888;BME280;6003;42.756;23.130;2022-10-23T07:03:38;157247.81;;;18.72;66.67
11888;BME280;6003;42.756;23.130;2022-10-23T07:06:07;157219.91;;;18.62;65.68
11888;BME280;6003;42.756;23.130;2022-10-23T07:08:34;157190.66;;;18.51;65.74
11888;BME280;6003;42.756;23.130;2022-10-23T07:11:03;157186.66;;;18.49;68.29
11888;BME280;6003;42.756;23.130;2022-10-23T07:13:32;157182.69;;;18.47;68.68
11888;BME280;6003;42.756;23.130;2022-10-23T07:16:07;157142.75;;;18.32;68.90
11888;BME280;6003;42.756;23.130;2022-10-23T07:18:35;157133.47;;;18.29;69.90
11888;BME280;6003;42.756;23.130;2022-10-23T07:21:02;157085.63;;;18.10;70.22
11888;BME280;6003;42.756;23.130;2022-10-23T07:23:29;157049.75;;;17.96;70.67
11888;BME280;6003;42.756;23.130;2022-10-23T07:26:02;157072.34;;;18.05;70.67
11888;BME280;6003;42.756;23.130;2022-10-23T07:28:29;157073.66;;;18.06;70.61
11888;BME280;6003;42.756;23.130;2022-10-23T07:30:57;157069.69;;;18.04;70.68
11888;BME280;6003;42.756;23.130;2022-10-23T07:33:24;157047.09;;;17.95;70.59
11888;BME280;6003;42.756;23.130;2022-10-23T07:35:51;157051.06;;;17.97;71.35
11888;BME280;6003;42.756;23.130;2022-10-23T07:38:18;157055.06;;;17.98;70.61
11888;BME280;6003;42.756;23.130;2022-10-23T07:40:46;157063.03;;;18.01;70.95
11888;BME280;6003;42.756;23.130;2022-10-23T07:43:13;157041.75;;;17.93;70.10
11888;BME280;6003;42.756;23.130;2022-10-23T07:45:41;157047.09;;;17.95;70.74
11888;BME280;6003;42.756;23.130;2022-10-23T07:48:09;157041.75;;;17.93;69.85
11888;BME280;6003;42.756;23.130;2022-10-23T07:50:36;157073.66;;;18.06;70.57
11888;BME280;6003;42.756;23.130;2022-10-23T07:53:04;157146.78;;;18.34;69.25
11888;BME280;6003;42.756;23.130;2022-10-23T07:55:31;157140.13;;;18.31;69.54
11888;BME280;6003;42.756;23.130;2022-10-23T07:57:58;157134.78;;;18.29;69.07
11888;BME280;6003;42.756;23.130;2022-10-23T08:00:24;157148.09;;;18.34;70.10
11888;BME280;6003;42.756;23.130;2022-10-23T08:02:51;157140.13;;;18.31;70.57
11888;BME280;6003;42.756;23.130;2022-10-23T08:05:20;157098.88;;;18.15;69.53
11888;BME280;6003;42.756;23.130;2022-10-23T08:07:47;157053.69;;;17.98;70.56
11888;BME280;6003;42.756;23.130;2022-10-23T08:10:14;157061.66;;;18.01;70.75
11888;BME280;6003;42.756;23.130;2022-10-23T08:12:41;157089.59;;;18.12;70.43
11888;BME280;6003;42.756;23.130;2022-10-23T08:15:08;157100.25;;;18.16;71.09
11888;BME280;6003;42.756;23.130;2022-10-23T08:17:38;157097.56;;;18.15;70.50
11888;BME280;6003;42.756;23.130;2022-10-23T08:20:06;157089.59;;;18.12;70.81
11888;BME280;6003;42.756;23.130;2022-10-23T08:22:34;157134.78;;;18.29;69.66
11888;BME280;6003;42.756;23.130;2022-10-23T08:25:03;157182.69;;;18.47;70.68
11888;BME280;6003;42.756;23.130;2022-10-23T08:27:30;157221.25;;;18.62;69.93
11888;BME280;6003;42.756;23.130;2022-10-23T08:29:57;157218.56;;;18.61;69.47
11888;BME280;6003;42.756;23.130;2022-10-23T08:32:27;157261.16;;;18.78;69.51
11888;BME280;6003;42.756;23.130;2022-10-23T08:34:54;157265.19;;;18.79;69.11
11888;BME280;6003;42.756;23.130;2022-10-23T08:37:21;157299.72;;;18.92;69.70
11888;BME280;6003;42.756;23.130;2022-10-23T08:40:22;157331.69;;;19.05;67.78
11888;BME280;6003;42.756;23.130;2022-10-23T08:42:55;157336.97;;;19.07;67.55
11888;BME280;6003;42.756;23.130;2022-10-23T08:45:30;157342.31;;;19.09;68.36
11888;BME280;6003;42.756;23.130;2022-10-23T08:48:03;157368.94;;;19.19;67.51
11888;BME280;6003;42.756;23.130;2022-10-23T08:50:35;157346.31;;;19.10;67.91
11888;BME280;6003;42.756;23.130;2022-10-23T08:53:11;157395.50;;;19.29;67.40
11888;BME280;6003;42.756;23.130;2022-10-23T08:55:45;157440.75;;;19.47;68.71
11888;BME280;6003;42.756;23.130;2022-10-23T08:58:17;157482.03;;;19.63;66.79
11888;BME280;6003;42.756;23.130;2022-10-23T09:00:46;157527.31;;;19.80;66.77
11888;BME280;6003;42.756;23.130;2022-10-23T09:03:13;157557.94;;;19.92;67.05
11888;BME280;6003;42.756;23.130;2022-10-23T09:05:51;157555.22;;;19.91;66.48
11888;BME280;6003;42.756;23.130;2022-10-23T09:08:29;157589.84;;;20.04;64.43
11888;BME280;6003;42.756;23.130;2022-10-23T09:11:09;157603.19;;;20.09;64.96
11888;BME280;6003;42.756;23.130;2022-10-23T09:14:15;157672.41;;;20.36;65.48
11888;BME280;6003;42.756;23.130;2022-10-23T09:16:57;157699.03;;;20.46;63.70
11888;BME280;6003;42.756;23.130;2022-10-23T09:19:26;157669.75;;;20.35;64.36
11888;BME280;6003;42.756;23.130;2022-10-23T09:21:54;157603.19;;;20.09;63.46
11888;BME280;6003;42.756;23.130;2022-10-23T09:24:24;157629.78;;;20.19;62.78
11888;BME280;6003;42.756;23.130;2022-10-23T09:26:54;157576.53;;;19.99;63.37
11888;BME280;6003;42.756;23.130;2022-10-23T09:29:23;157544.59;;;19.87;63.68
11888;BME280;6003;42.756;23.130;2022-10-23T09:31:52;157544.59;;;19.87;62.99
11888;BME280;6003;42.756;23.130;2022-10-23T09:34:21;157560.56;;;19.93;64.21
11888;BME280;6003;42.756;23.130;2022-10-23T09:36:51;157576.53;;;19.99;63.66
11888;BME280;6003;42.756;23.130;2022-10-23T09:39:25;157647.13;;;20.26;63.35
11888;BME280;6003;42.756;23.130;2022-10-23T09:41:54;157635.13;;;20.21;60.96
11888;BME280;6003;42.756;23.130;2022-10-23T09:44:23;157677.75;;;20.38;63.42
11888;BME280;6003;42.756;23.130;2022-10-23T09:46:52;157701.69;;;20.47;61.38
11888;BME280;6003;42.756;23.130;2022-10-23T09:49:21;157683.03;;;20.40;61.11
11888;BME280;6003;42.756;23.130;2022-10-23T09:52:02;157657.75;;;20.30;60.80
11888;BME280;6003;42.756;23.130;2022-10-23T09:54:31;157651.09;;;20.27;60.60
11888;BME280;6003;42.756;23.130;2022-10-23T09:57:03;157648.44;;;20.26;60.19
11888;BME280;6003;42.756;23.130;2022-10-23T09:59:32;157707.03;;;20.49;60.37
11888;BME280;6003;42.756;23.130;2022-10-23T10:02:00;157759.00;;;20.69;59.52
11888;BME280;6003;42.756;23.130;2022-10-23T10:04:31;157822.91;;;20.93;60.73
11888;BME280;6003;42.756;23.130;2022-10-23T10:07:00;157850.91;;;21.04;57.47
11888;BME280;6003;42.756;23.130;2022-10-23T10:09:28;157817.56;;;20.91;56.59
11888;BME280;6003;42.756;23.130;2022-10-23T10:11:57;157808.25;;;20.88;56.87
11888;BME280;6003;42.756;23.130;2022-10-23T10:14:44;157810.97;;;20.89;59.81
11888;BME280;6003;42.756;23.130;2022-10-23T10:17:19;157769.66;;;20.73;57.55
11888;BME280;6003;42.756;23.130;2022-10-23T10:20:02;157770.97;;;20.73;57.61
11888;BME280;6003;42.756;23.130;2022-10-23T10:22:38;157761.66;;;20.70;57.25
11888;BME280;6003;42.756;23.130;2022-10-23T10:25:11;157781.66;;;20.78;57.99
11888;BME280;6003;42.756;23.130;2022-10-23T10:27:51;157812.28;;;20.89;56.50
11888;BME280;6003;42.756;23.130;2022-10-23T10:30:23;157822.91;;;20.93;57.34
11888;BME280;6003;42.756;23.130;2022-10-23T10:32:53;157790.97;;;20.81;58.32
11888;BME280;6003;42.756;23.130;2022-10-23T10:35:36;157816.25;;;20.91;57.48
11888;BME280;6003;42.756;23.130;2022-10-23T10:38:17;157816.25;;;20.91;57.40
11888;BME280;6003;42.756;23.130;2022-10-23T10:40:54;157866.88;;;21.10;56.80
11888;BME280;6003;42.756;23.130;2022-10-23T10:43:36;157870.91;;;21.12;57.77
11888;BME280;6003;42.756;23.130;2022-10-23T10:46:15;157877.50;;;21.14;56.45
11888;BME280;6003;42.756;23.130;2022-10-23T10:48:50;157822.91;;;20.93;56.27
11888;BME280;6003;42.756;23.130;2022-10-23T10:51:28;157872.22;;;21.12;57.03
11888;BME280;6003;42.756;23.130;2022-10-23T10:54:09;157874.88;;;21.13;57.53
11888;BME280;6003;42.756;23.130;2022-10-23T10:56:42;157885.50;;;21.17;56.40
11888;BME280;6003;42.756;23.130;2022-10-23T10:59:15;157873.53;;;21.13;56.14
11888;BME280;6003;42.756;23.130;2022-10-23T11:01:48;157872.22;;;21.12;55.12
11888;BME280;6003;42.756;23.130;2022-10-23T11:04:27;157856.25;;;21.06;56.03
11888;BME280;6003;42.756;23.130;2022-10-23T11:06:56;157802.91;;;20.86;55.73
11888;BME280;6003;42.756;23.130;2022-10-23T11:09:26;157845.56;;;21.02;55.57
11888;BME280;6003;42.756;23.130;2022-10-23T11:11:53;157826.94;;;20.95;55.37
11888;BME280;6003;42.756;23.130;2022-10-23T11:14:22;157816.25;;;20.91;55.52
11888;BME280;6003;42.756;23.130;2022-10-23T11:16:52;157836.25;;;20.99;56.32
11888;BME280;6003;42.756;23.130;2022-10-23T11:19:24;157818.94;;;20.92;56.89
11888;BME280;6003;42.756;23.130;2022-10-23T11:21:57;157873.53;;;21.13;55.60
11888;BME280;6003;42.756;23.130;2022-10-23T11:24:54;157890.84;;;21.19;52.24
11888;BME280;6003;42.756;23.130;2022-10-23T11:27:30;157882.84;;;21.16;52.93
11888;BME280;6003;42.756;23.130;2022-10-23T11:30:27;157888.19;;;21.18;55.36
11888;BME280;6003;42.756;23.130;2022-10-23T11:36:15;157805.63;;;20.87;53.62
11888;BME280;6003;42.756;23.130;2022-10-23T11:38:45;157805.63;;;20.87;52.97
11888;BME280;6003;42.756;23.130;2022-10-23T11:41:18;157832.22;;;20.97;53.13
11888;BME280;6003;42.756;23.130;2022-10-23T11:43:48;157840.22;;;21.00;54.59
11888;BME280;6003;42.756;23.130;2022-10-23T11:46:28;157821.59;;;20.93;54.96
11888;BME280;6003;42.756;23.130;2022-10-23T11:48:56;157833.59;;;20.98;54.20
11888;BME280;6003;42.756;23.130;2022-10-23T11:51:29;157841.59;;;21.01;53.56
11888;BME280;6003;42.756;23.130;2022-10-23T11:54:18;157880.22;;;21.15;55.74
11888;BME280;6003;42.756;23.130;2022-10-23T11:56:52;157856.25;;;21.06;54.28
11888;BME280;6003;42.756;23.130;2022-10-23T11:59:24;157857.56;;;21.07;54.95
11888;BME280;6003;42.756;23.130;2022-10-23T12:01:53;157868.19;;;21.11;55.72
11888;BME280;6003;42.756;23.130;2022-10-23T12:04:24;157890.84;;;21.19;55.19
11888;BME280;6003;42.756;23.130;2022-10-23T12:06:56;157876.19;;;21.14;54.50
11888;BME280;6003;42.756;23.130;2022-10-23T12:09:30;157813.59;;;20.90;49.43
11888;BME280;6003;42.756;23.130;2022-10-23T12:12:15;157792.28;;;20.82;50.15
11888;BME280;6003;42.756;23.130;2022-10-23T12:14:44;157780.28;;;20.77;53.88
11888;BME280;6003;42.756;23.130;2022-10-23T12:17:31;157786.94;;;20.80;53.72
11888;BME280;6003;42.756;23.130;2022-10-23T12:20:12;157736.38;;;20.60;55.50
11888;BME280;6003;42.756;23.130;2022-10-23T12:22:55;157717.72;;;20.53;55.68
11888;BME280;6003;42.756;23.130;2022-10-23T12:25:36;157762.97;;;20.70;56.43
11888;BME280;6003;42.756;23.130;2022-10-23T12:28:13;157731.03;;;20.58;54.77
11888;BME280;6003;42.756;23.130;2022-10-23T12:30:52;157765.69;;;20.71;54.54
11888;BME280;6003;42.756;23.130;2022-10-23T12:33:25;157768.31;;;20.72;54.01
11888;BME280;6003;42.756;23.130;2022-10-23T12:36:19;157757.63;;;20.68;54.69
11888;BME280;6003;42.756;23.130;2022-10-23T12:38:50;157777.63;;;20.76;54.25
11888;BME280;6003;42.756;23.130;2022-10-23T12:41:23;157773.66;;;20.75;53.69
11888;BME280;6003;42.756;23.130;2022-10-23T12:43:53;157762.97;;;20.70;53.03
11888;BME280;6003;42.756;23.130;2022-10-23T12:46:28;157740.34;;;20.62;54.17
11888;BME280;6003;42.756;23.130;2022-10-23T12:48:57;157752.34;;;20.66;53.46
11888;BME280;6003;42.756;23.130;2022-10-23T12:51:27;157739.03;;;20.61;54.45
11888;BME280;6003;42.756;23.130;2022-10-23T12:53:56;157743.00;;;20.63;53.83
11888;BME280;6003;42.756;23.130;2022-10-23T12:56:23;157744.38;;;20.63;53.91
11888;BME280;6003;42.756;23.130;2022-10-23T12:58:53;157723.06;;;20.55;53.48
11888;BME280;6003;42.756;23.130;2022-10-23T13:01:22;157720.34;;;20.54;54.67
11888;BME280;6003;42.756;23.130;2022-10-23T13:03:51;157736.38;;;20.60;53.13
11888;BME280;6003;42.756;23.130;2022-10-23T13:06:21;157762.97;;;20.70;53.87
11888;BME280;6003;42.756;23.130;2022-10-23T13:08:49;157753.69;;;20.67;54.32
11888;BME280;6003;42.756;23.130;2022-10-23T13:11:19;157770.97;;;20.73;52.74
11888;BME280;6003;42.756;23.130;2022-10-23T13:13:47;157745.69;;;20.64;51.77